Soaring Guidance
Issued by NWS Reno, NV

Home | Current Version | Previous Version | Text Only | Print | Product List | Glossary On
Versions: 1 2 3 4 5 6 7 8 9 10 11 12 13
000
UXUS97 KREV 031348
SRGREV

SOARING FORECAST
NATIONAL WEATHER SERVICE - RENO NV
700 AM PDT WED JUN 3 2015

THIS SOARING FORECAST IS FOR THE EASTERN SIERRA AND WESTERN NEVADA
WITH SPECIFIC INDICES FOR THE GREATER RENO AREA.

THIS FORECAST IS PREPARED DAILY BY 700 AM AND IS NOT UPDATED.

FOR CURRENT FLIGHT CONDITIONS...FORECASTS...AND ADVISORIES...ACCESS
YOUR LOCAL BRIEFING OUTLET OR FLIGHT SERVICE STATION.

*******************************************************************
FORECASTED LOCAL INDICES FOR RENO:        TODAY     YESTERDAY
FORECASTED MAX TEMP AT RENO (DEG F).....     79          78
FORECASTED TRIGGER TEMPERATURE (DEG F)..     64          61
   EXCEEDED YESTERDAY BY 255 PM PDT
FORECASTED MAXIMUM ALTITUDE (FT MSL)....  16400       15400
FORECASTED SOARING INDEX (FPM)..........    972         792
FORECASTED K-INDEX.........VALID 18Z....     24          21
FORECASTED K-INDEX.........VALID 00Z....     21          19
FORECASTED LIFTED INDEX....VALID 18Z....      1           2
FORECASTED LIFTED INDEX....VALID 00Z....      0           1

AFTERNOON WINDS ALOFT FORECAST
MSL (FT) WIND/TEMP
9000  2810/+09
10000 2609/+06
12000 2606/+01
14000 2309/-04
16000 2213/-09
18000 2223/-14
24000 2327/-25
30000 2533/-40
34000 2546/-51
39000 2643/-58

SLIDE MOUNTAIN DATA:
     DATE       TIME     TEMP  DEWPT   RH         WIND (MPH)
                        (F)   (F)           | DIR  SPEED GUST
2015-06-03    05:50      38    10     22    | 240    9   12
2015-06-03    05:30      38    11     23    | 236    7   10
2015-06-03    05:20      38    13     32    | 240    9   13
2015-06-03    05:00      37    14     36    | 238    9   11

RENO TAF FORECAST:
KRNO 031123Z 0312/0412 VRB04KT P6SM BKN200
     FM032100 29015G25KT P6SM FEW120 BKN200
     FM040400 34009KT P6SM BKN120 OVC200

CARSON CITY TAF FORECAST:
KCXP 031123Z 0312/0412 VRB04KT P6SM BKN200
     FM032000 30010G20KT P6SM FEW120 BKN200
     FM040300 32008KT P6SM BKN100 OVC200

OUTLOOK FOR THE RENO-CARSON CITY-MINDEN AREA:
.THURSDAY...MOSTLY CLOUDY. CHANCE OF SHOWERS AND THUNDERSTORMS IN
THE AFTERNOON. HIGHS 71 TO 76. LIGHT WINDS BECOMING NORTHEAST
AROUND 10 MPH IN THE AFTERNOON.

SUNRISE AND SUNSET
JUNE  3 2015..........SUNRISE   533 AM PDT   SUNSET   822 PM PDT
JUNE  4 2015..........SUNRISE   533 AM PDT   SUNSET   822 PM PDT


USA.gov is the U.S. government's official web portal to all federal, state and local government web resources and services.